sensor_id;sensor_type;location;lat;lon;timestamp;temperature;humidity
29241;DHT22;16268;49.880;8.648;2022-12-10T00:00:31;2.00;99.90
29241;DHT22;16268;49.880;8.648;2022-12-10T00:02:57;2.00;99.90
29241;DHT22;16268;49.880;8.648;2022-12-10T00:05:22;1.90;99.90
29241;DHT22;16268;49.880;8.648;2022-12-10T00:07:48;1.90;99.90
29241;DHT22;16268;49.880;8.648;2022-12-10T00:10:13;2.00;99.90
29241;DHT22;16268;49.880;8.648;2022-12-10T00:12:39;2.10;99.90
29241;DHT22;16268;49.880;8.648;2022-12-10T00:15:05;2.20;99.90
29241;DHT22;16268;49.880;8.648;2022-12-10T00:17:30;2.20;99.90
29241;DHT22;16268;49.880;8.648;2022-12-10T00:19:56;2.10;99.90
29241;DHT22;16268;49.880;8.648;2022-12-10T00:22:21;2.10;99.90
29241;DHT22;16268;49.880;8.648;2022-12-10T00:24:47;2.10;99.90
29241;DHT22;16268;49.880;8.648;2022-12-10T00:27:12;2.10;99.90
29241;DHT22;16268;49.880;8.648;2022-12-10T00:29:39;2.00;99.90
29241;DHT22;16268;49.880;8.648;2022-12-10T00:32:05;2.00;99.90
29241;DHT22;16268;49.880;8.648;2022-12-10T00:34:31;1.90;99.90
29241;DHT22;16268;49.880;8.648;2022-12-10T00:36:57;1.90;99.90
29241;DHT22;16268;49.880;8.648;2022-12-10T00:39:22;1.90;99.90
29241;DHT22;16268;49.880;8.648;2022-12-10T00:41:48;1.90;99.90
29241;DHT22;16268;49.880;8.648;2022-12-10T00:44:15;1.80;99.90
29241;DHT22;16268;49.880;8.648;2022-12-10T00:46:41;1.80;99.90
29241;DHT22;16268;49.880;8.648;2022-12-10T00:49:07;1.70;99.90
29241;DHT22;16268;49.880;8.648;2022-12-10T00:51:33;1.70;99.90
29241;DHT22;16268;49.880;8.648;2022-12-10T00:53:59;1.70;99.90
29241;DHT22;16268;49.880;8.648;2022-12-10T00:56:27;1.80;99.90
29241;DHT22;16268;49.880;8.648;2022-12-10T00:58:54;1.80;99.90
29241;DHT22;16268;49.880;8.648;2022-12-10T01:01:24;1.70;99.90
29241;DHT22;16268;49.880;8.648;2022-12-10T01:03:52;1.70;99.90
29241;DHT22;16268;49.880;8.648;2022-12-10T01:08:49;1.70;99.90
29241;DHT22;16268;49.880;8.648;2022-12-10T01:11:17;1.70;99.90
29241;DHT22;16268;49.880;8.648;2022-12-10T01:13:44;1.60;99.90
29241;DHT22;16268;49.880;8.648;2022-12-10T01:16:13;1.70;99.90
29241;DHT22;16268;49.880;8.648;2022-12-10T01:18:39;1.60;99.90
29241;DHT22;16268;49.880;8.648;2022-12-10T01:21:07;1.60;99.90
29241;DHT22;16268;49.880;8.648;2022-12-10T01:23:35;1.60;99.90
29241;DHT22;16268;49.880;8.648;2022-12-10T01:26:03;1.60;99.90
29241;DHT22;16268;49.880;8.648;2022-12-10T01:28:34;1.60;99.90
29241;DHT22;16268;49.880;8.648;2022-12-10T01:31:02;1.70;99.90
29241;DHT22;16268;49.880;8.648;2022-12-10T01:33:28;1.70;99.90
29241;DHT22;16268;49.880;8.648;2022-12-10T01:35:54;1.60;99.90
29241;DHT22;16268;49.880;8.648;2022-12-10T01:38:19;1.50;99.90
29241;DHT22;16268;49.880;8.648;2022-12-10T01:40:45;1.50;99.90
29241;DHT22;16268;49.880;8.648;2022-12-10T01:43:16;1.50;99.90
29241;DHT22;16268;49.880;8.648;2022-12-10T01:45:42;1.50;99.90
29241;DHT22;16268;49.880;8.648;2022-12-10T01:48:07;1.60;99.90
29241;DHT22;16268;49.880;8.648;2022-12-10T01:50:33;1.60;99.90
29241;DHT22;16268;49.880;8.648;2022-12-10T01:52:59;1.60;99.90
29241;DHT22;16268;49.880;8.648;2022-12-10T01:55:57;1.60;99.90
29241;DHT22;16268;49.880;8.648;2022-12-10T01:58:23;1.60;99.90
29241;DHT22;16268;49.880;8.648;2022-12-10T02:01:11;1.60;99.90
29241;DHT22;16268;49.880;8.648;2022-12-10T02:06:40;1.50;99.90
29241;DHT22;16268;49.880;8.648;2022-12-10T02:09:19;1.50;99.90
29241;DHT22;16268;49.880;8.648;2022-12-10T02:11:52;1.50;99.90
29241;DHT22;16268;49.880;8.648;2022-12-10T02:14:35;1.50;99.90
29241;DHT22;16268;49.880;8.648;2022-12-10T02:17:37;1.40;99.90
29241;DHT22;16268;49.880;8.648;2022-12-10T02:20:13;1.50;99.90
29241;DHT22;16268;49.880;8.648;2022-12-10T02:22:55;1.50;99.90
29241;DHT22;16268;49.880;8.648;2022-12-10T02:25:28;1.40;99.90
29241;DHT22;16268;49.880;8.648;2022-12-10T02:28:05;1.50;99.90
29241;DHT22;16268;49.880;8.648;2022-12-10T02:30:34;1.60;99.90
29241;DHT22;16268;49.880;8.648;2022-12-10T02:33:02;1.60;99.90
29241;DHT22;16268;49.880;8.648;2022-12-10T02:35:33;1.60;99.90
29241;DHT22;16268;49.880;8.648;2022-12-10T02:38:31;1.70;99.90
29241;DHT22;16268;49.880;8.648;2022-12-10T02:41:04;1.70;99.90
29241;DHT22;16268;49.880;8.648;2022-12-10T02:43:32;1.70;99.90
29241;DHT22;16268;49.880;8.648;2022-12-10T02:45:58;1.70;99.90
29241;DHT22;16268;49.880;8.648;2022-12-10T02:48:25;1.70;99.90
29241;DHT22;16268;49.880;8.648;2022-12-10T02:50:51;1.70;99.90
29241;DHT22;16268;49.880;8.648;2022-12-10T02:53:16;1.90;99.90
29241;DHT22;16268;49.880;8.648;2022-12-10T02:56:13;1.90;99.90
29241;DHT22;16268;49.880;8.648;2022-12-10T03:02:02;1.80;99.90
29241;DHT22;16268;49.880;8.648;2022-12-10T03:04:33;1.80;99.90
29241;DHT22;16268;49.880;8.648;2022-12-10T03:07:07;1.70;99.90
29241;DHT22;16268;49.880;8.648;2022-12-10T03:09:39;1.70;99.90
29241;DHT22;16268;49.880;8.648;2022-12-10T03:12:17;1.70;99.90
29241;DHT22;16268;49.880;8.648;2022-12-10T03:14:44;1.60;99.90
29241;DHT22;16268;49.880;8.648;2022-12-10T03:17:11;1.60;99.90
29241;DHT22;16268;49.880;8.648;2022-12-10T03:19:47;1.60;99.90
29241;DHT22;16268;49.880;8.648;2022-12-10T03:22:16;1.50;99.90
29241;DHT22;16268;49.880;8.648;2022-12-10T03:24:43;1.70;99.90
29241;DHT22;16268;49.880;8.648;2022-12-10T03:27:10;1.70;99.90
29241;DHT22;16268;49.880;8.648;2022-12-10T03:29:41;1.60;99.90
29241;DHT22;16268;49.880;8.648;2022-12-10T03:32:08;1.60;99.90
29241;DHT22;16268;49.880;8.648;2022-12-10T03:34:34;1.50;99.90
29241;DHT22;16268;49.880;8.648;2022-12-10T03:37:01;1.60;99.90
29241;DHT22;16268;49.880;8.648;2022-12-10T03:39:27;1.60;99.90
29241;DHT22;16268;49.880;8.648;2022-12-10T03:41:53;1.50;99.90
29241;DHT22;16268;49.880;8.648;2022-12-10T03:44:36;1.60;99.90
29241;DHT22;16268;49.880;8.648;2022-12-10T03:47:02;1.60;99.90
29241;DHT22;16268;49.880;8.648;2022-12-10T03:49:29;1.60;99.90
29241;DHT22;16268;49.880;8.648;2022-12-10T03:51:54;1.60;99.90
29241;DHT22;16268;49.880;8.648;2022-12-10T03:54:20;1.50;99.90
29241;DHT22;16268;49.880;8.648;2022-12-10T03:56:46;1.40;99.90
29241;DHT22;16268;49.880;8.648;2022-12-10T03:59:11;1.40;99.90
29241;DHT22;16268;49.880;8.648;2022-12-10T04:01:37;1.40;99.90
29241;DHT22;16268;49.880;8.648;2022-12-10T04:04:04;1.60;99.90
29241;DHT22;16268;49.880;8.648;2022-12-10T04:06:30;1.60;99.90
29241;DHT22;16268;49.880;8.648;2022-12-10T04:08:56;1.60;99.90
29241;DHT22;16268;49.880;8.648;2022-12-10T04:11:21;1.70;99.90
29241;DHT22;16268;49.880;8.648;2022-12-10T04:13:47;1.70;99.90
29241;DHT22;16268;49.880;8.648;2022-12-10T04:16:33;1.80;99.90
29241;DHT22;16268;49.880;8.648;2022-12-10T04:21:29;1.90;99.90
29241;DHT22;16268;49.880;8.648;2022-12-10T04:24:33;1.80;99.90
29241;DHT22;16268;49.880;8.648;2022-12-10T04:27:24;1.70;99.90
29241;DHT22;16268;49.880;8.648;2022-12-10T04:29:50;1.70;99.90
29241;DHT22;16268;49.880;8.648;2022-12-10T04:32:17;1.60;99.90
29241;DHT22;16268;49.880;8.648;2022-12-10T04:34:43;1.60;99.90
29241;DHT22;16268;49.880;8.648;2022-12-10T04:37:09;1.70;99.90
29241;DHT22;16268;49.880;8.648;2022-12-10T04:39:36;1.70;99.90
29241;DHT22;16268;49.880;8.648;2022-12-10T04:42:03;1.70;99.90
29241;DHT22;16268;49.880;8.648;2022-12-10T04:44:28;1.80;99.90
29241;DHT22;16268;49.880;8.648;2022-12-10T04:46:54;1.80;99.90
29241;DHT22;16268;49.880;8.648;2022-12-10T04:49:21;1.70;99.90
29241;DHT22;16268;49.880;8.648;2022-12-10T04:51:46;1.70;99.90
29241;DHT22;16268;49.880;8.648;2022-12-10T04:54:13;1.50;99.90
29241;DHT22;16268;49.880;8.648;2022-12-10T04:56:38;1.50;99.90
29241;DHT22;16268;49.880;8.648;2022-12-10T04:59:04;1.50;99.90
29241;DHT22;16268;49.880;8.648;2022-12-10T05:01:30;1.50;99.90
29241;DHT22;16268;49.880;8.648;2022-12-10T05:03:59;1.50;99.90
29241;DHT22;16268;49.880;8.648;2022-12-10T05:06:25;1.50;99.90
29241;DHT22;16268;49.880;8.648;2022-12-10T05:08:50;1.50;99.90
29241;DHT22;16268;49.880;8.648;2022-12-10T05:11:18;1.60;99.90
29241;DHT22;16268;49.880;8.648;2022-12-10T05:13:45;1.50;99.90
29241;DHT22;16268;49.880;8.648;2022-12-10T05:16:14;1.60;99.90
29241;DHT22;16268;49.880;8.648;2022-12-10T05:18:40;1.60;99.90
29241;DHT22;16268;49.880;8.648;2022-12-10T05:21:09;1.60;99.90
29241;DHT22;16268;49.880;8.648;2022-12-10T05:23:37;1.60;99.90
29241;DHT22;16268;49.880;8.648;2022-12-10T05:26:08;1.60;99.90
29241;DHT22;16268;49.880;8.648;2022-12-10T05:28:37;1.60;99.90
29241;DHT22;16268;49.880;8.648;2022-12-10T05:31:03;1.60;99.90
29241;DHT22;16268;49.880;8.648;2022-12-10T05:33:29;1.50;99.90
29241;DHT22;16268;49.880;8.648;2022-12-10T05:36:02;1.50;99.90
29241;DHT22;16268;49.880;8.648;2022-12-10T05:38:29;1.40;99.90
29241;DHT22;16268;49.880;8.648;2022-12-10T05:40:55;1.40;99.90
29241;DHT22;16268;49.880;8.648;2022-12-10T05:43:21;1.40;99.90
29241;DHT22;16268;49.880;8.648;2022-12-10T05:45:47;1.50;99.90
29241;DHT22;16268;49.880;8.648;2022-12-10T05:48:14;1.60;99.90
29241;DHT22;16268;49.880;8.648;2022-12-10T05:50:40;1.70;99.90
29241;DHT22;16268;49.880;8.648;2022-12-10T05:53:06;1.80;99.90
29241;DHT22;16268;49.880;8.648;2022-12-10T05:55:32;1.70;99.90
29241;DHT22;16268;49.880;8.648;2022-12-10T05:57:59;1.80;99.90
29241;DHT22;16268;49.880;8.648;2022-12-10T06:00:26;1.80;99.90
29241;DHT22;16268;49.880;8.648;2022-12-10T06:02:51;1.90;99.90
29241;DHT22;16268;49.880;8.648;2022-12-10T06:05:17;1.80;99.90
29241;DHT22;16268;49.880;8.648;2022-12-10T06:07:43;1.90;99.90
29241;DHT22;16268;49.880;8.648;2022-12-10T06:10:09;1.80;99.90
29241;DHT22;16268;49.880;8.648;2022-12-10T06:12:36;1.80;99.90
29241;DHT22;16268;49.880;8.648;2022-12-10T06:15:01;1.70;99.90
29241;DHT22;16268;49.880;8.648;2022-12-10T06:17:27;1.70;99.90
29241;DHT22;16268;49.880;8.648;2022-12-10T06:19:52;1.60;99.90
29241;DHT22;16268;49.880;8.648;2022-12-10T06:22:18;1.50;99.90
29241;DHT22;16268;49.880;8.648;2022-12-10T06:24:43;1.50;99.90
29241;DHT22;16268;49.880;8.648;2022-12-10T06:27:09;1.40;99.90
29241;DHT22;16268;49.880;8.648;2022-12-10T06:29:34;1.40;99.90
29241;DHT22;16268;49.880;8.648;2022-12-10T06:32:00;1.30;99.90
29241;DHT22;16268;49.880;8.648;2022-12-10T06:34:26;1.30;99.90
29241;DHT22;16268;49.880;8.648;2022-12-10T06:36:51;1.30;99.90
29241;DHT22;16268;49.880;8.648;2022-12-10T06:39:17;1.40;99.90
29241;DHT22;16268;49.880;8.648;2022-12-10T06:41:42;1.40;99.90
29241;DHT22;16268;49.880;8.648;2022-12-10T06:44:09;1.50;99.90
29241;DHT22;16268;49.880;8.648;2022-12-10T06:46:35;1.40;99.90
29241;DHT22;16268;49.880;8.648;2022-12-10T06:49:01;1.50;99.90
29241;DHT22;16268;49.880;8.648;2022-12-10T06:51:27;1.50;99.90
29241;DHT22;16268;49.880;8.648;2022-12-10T06:53:52;1.60;99.90
29241;DHT22;16268;49.880;8.648;2022-12-10T06:56:19;1.60;99.90
29241;DHT22;16268;49.880;8.648;2022-12-10T06:58:45;1.70;99.90
29241;DHT22;16268;49.880;8.648;2022-12-10T07:01:14;1.80;99.90
29241;DHT22;16268;49.880;8.648;2022-12-10T07:03:40;1.80;99.90
29241;DHT22;16268;49.880;8.648;2022-12-10T07:06:08;1.80;99.90
29241;DHT22;16268;49.880;8.648;2022-12-10T07:08:34;1.90;99.90
29241;DHT22;16268;49.880;8.648;2022-12-10T07:11:06;1.90;99.90
29241;DHT22;16268;49.880;8.648;2022-12-10T07:13:33;1.90;99.90
29241;DHT22;16268;49.880;8.648;2022-12-10T07:15:58;1.80;99.90
29241;DHT22;16268;49.880;8.648;2022-12-10T07:18:25;1.80;99.90
29241;DHT22;16268;49.880;8.648;2022-12-10T07:20:50;1.80;99.90
29241;DHT22;16268;49.880;8.648;2022-12-10T07:23:16;1.80;99.90
29241;DHT22;16268;49.880;8.648;2022-12-10T07:25:41;1.90;99.90
29241;DHT22;16268;49.880;8.648;2022-12-10T07:28:07;1.90;99.90
29241;DHT22;16268;49.880;8.648;2022-12-10T07:30:33;2.00;99.90
29241;DHT22;16268;49.880;8.648;2022-12-10T07:32:58;2.00;99.90
29241;DHT22;16268;49.880;8.648;2022-12-10T07:35:24;2.10;99.90
29241;DHT22;16268;49.880;8.648;2022-12-10T07:37:50;2.20;99.90
29241;DHT22;16268;49.880;8.648;2022-12-10T07:40:15;2.20;99.90
29241;DHT22;16268;49.880;8.648;2022-12-10T07:42:41;2.20;99.90
29241;DHT22;16268;49.880;8.648;2022-12-10T07:45:07;2.20;99.90
29241;DHT22;16268;49.880;8.648;2022-12-10T07:47:35;2.30;99.90
29241;DHT22;16268;49.880;8.648;2022-12-10T07:50:01;2.30;99.90
29241;DHT22;16268;49.880;8.648;2022-12-10T07:52:27;2.30;99.90
29241;DHT22;16268;49.880;8.648;2022-12-10T07:54:52;2.30;99.90
29241;DHT22;16268;49.880;8.648;2022-12-10T07:57:18;2.30;99.90
29241;DHT22;16268;49.880;8.648;2022-12-10T07:59:43;2.30;99.90
29241;DHT22;16268;49.880;8.648;2022-12-10T08:02:09;2.40;99.90
29241;DHT22;16268;49.880;8.648;2022-12-10T08:04:34;2.50;99.90
29241;DHT22;16268;49.880;8.648;2022-12-10T08:07:00;2.50;99.90
29241;DHT22;16268;49.880;8.648;2022-12-10T08:09:25;2.50;99.90
29241;DHT22;16268;49.880;8.648;2022-12-10T08:11:52;2.60;99.90
29241;DHT22;16268;49.880;8.648;2022-12-10T08:14:18;2.60;99.90
29241;DHT22;16268;49.880;8.648;2022-12-10T08:16:43;2.60;99.90
29241;DHT22;16268;49.880;8.648;2022-12-10T08:19:09;2.60;99.90
29241;DHT22;16268;49.880;8.648;2022-12-10T08:21:34;2.70;99.90
29241;DHT22;16268;49.880;8.648;2022-12-10T08:24:00;2.70;99.90
29241;DHT22;16268;49.880;8.648;2022-12-10T08:26:31;2.80;99.90
29241;DHT22;16268;49.880;8.648;2022-12-10T08:28:58;2.80;99.90
29241;DHT22;16268;49.880;8.648;2022-12-10T08:31:25;2.70;99.90
29241;DHT22;16268;49.880;8.648;2022-12-10T08:33:51;2.80;99.90
29241;DHT22;16268;49.880;8.648;2022-12-10T08:36:18;2.80;99.90
29241;DHT22;16268;49.880;8.648;2022-12-10T08:38:44;2.80;99.90
29241;DHT22;16268;49.880;8.648;2022-12-10T08:41:12;2.80;99.90
29241;DHT22;16268;49.880;8.648;2022-12-10T08:43:38;2.90;99.90
29241;DHT22;16268;49.880;8.648;2022-12-10T08:46:04;2.90;99.90
29241;DHT22;16268;49.880;8.648;2022-12-10T08:48:30;3.00;99.90
29241;DHT22;16268;49.880;8.648;2022-12-10T08:50:56;3.10;99.90
29241;DHT22;16268;49.880;8.648;2022-12-10T08:53:22;3.10;99.90
29241;DHT22;16268;49.880;8.648;2022-12-10T08:55:52;3.10;99.90
29241;DHT22;16268;49.880;8.648;2022-12-10T08:58:18;3.00;99.90
29241;DHT22;16268;49.880;8.648;2022-12-10T09:00:45;3.00;99.90
29241;DHT22;16268;49.880;8.648;2022-12-10T09:03:11;3.10;99.90
29241;DHT22;16268;49.880;8.648;2022-12-10T09:05:36;3.20;99.90
29241;DHT22;16268;49.880;8.648;2022-12-10T09:08:02;3.20;99.90
29241;DHT22;16268;49.880;8.648;2022-12-10T09:10:28;3.30;99.90
29241;DHT22;16268;49.880;8.648;2022-12-10T09:12:54;3.30;99.90
29241;DHT22;16268;49.880;8.648;2022-12-10T09:15:19;3.30;99.90
29241;DHT22;16268;49.880;8.648;2022-12-10T09:17:45;3.30;99.90
29241;DHT22;16268;49.880;8.648;2022-12-10T09:20:10;3.20;99.90
29241;DHT22;16268;49.880;8.648;2022-12-10T09:22:36;3.20;99.90
29241;DHT22;16268;49.880;8.648;2022-12-10T09:25:07;3.30;99.90
29241;DHT22;16268;49.880;8.648;2022-12-10T09:27:35;3.20;99.90
29241;DHT22;16268;49.880;8.648;2022-12-10T09:30:02;3.20;99.90
29241;DHT22;16268;49.880;8.648;2022-12-10T09:32:27;2.90;99.90
29241;DHT22;16268;49.880;8.648;2022-12-10T09:34:53;3.00;99.90
29241;DHT22;16268;49.880;8.648;2022-12-10T09:37:19;2.90;99.90
29241;DHT22;16268;49.880;8.648;2022-12-10T09:39:44;3.00;99.90
29241;DHT22;16268;49.880;8.648;2022-12-10T09:42:34;3.30;99.90
29241;DHT22;16268;49.880;8.648;2022-12-10T09:50:45;4.10;99.90
29241;DHT22;16268;49.880;8.648;2022-12-10T09:53:15;4.30;99.90
29241;DHT22;16268;49.880;8.648;2022-12-10T09:55:43;4.50;99.90
29241;DHT22;16268;49.880;8.648;2022-12-10T09:58:17;4.30;99.90
29241;DHT22;16268;49.880;8.648;2022-12-10T10:00:50;4.30;99.90
29241;DHT22;16268;49.880;8.648;2022-12-10T10:03:17;4.20;99.90
29241;DHT22;16268;49.880;8.648;2022-12-10T10:05:47;4.50;99.90
29241;DHT22;16268;49.880;8.648;2022-12-10T10:08:20;4.60;99.90
29241;DHT22;16268;49.880;8.648;2022-12-10T10:10:47;4.50;99.90
29241;DHT22;16268;49.880;8.648;2022-12-10T10:13:30;4.50;99.90
29241;DHT22;16268;49.880;8.648;2022-12-10T10:16:00;4.40;99.90
29241;DHT22;16268;49.880;8.648;2022-12-10T10:18:36;4.50;99.90
29241;DHT22;16268;49.880;8.648;2022-12-10T10:21:05;4.60;99.90
29241;DHT22;16268;49.880;8.648;2022-12-10T10:23:32;4.80;99.90
29241;DHT22;16268;49.880;8.648;2022-12-10T10:25:58;4.90;99.90
29241;DHT22;16268;49.880;8.648;2022-12-10T10:28:25;4.70;99.90
29241;DHT22;16268;49.880;8.648;2022-12-10T10:30:52;4.60;99.90
29241;DHT22;16268;49.880;8.648;2022-12-10T10:33:19;4.40;99.90
29241;DHT22;16268;49.880;8.648;2022-12-10T10:35:52;4.30;99.90
29241;DHT22;16268;49.880;8.648;2022-12-10T10:38:24;4.20;99.90
29241;DHT22;16268;49.880;8.648;2022-12-10T10:40:53;4.00;99.90
29241;DHT22;16268;49.880;8.648;2022-12-10T10:43:25;4.10;99.90
29241;DHT22;16268;49.880;8.648;2022-12-10T10:45:59;4.20;99.90
29241;DHT22;16268;49.880;8.648;2022-12-10T10:48:28;4.30;99.90
29241;DHT22;16268;49.880;8.648;2022-12-10T10:53:43;4.60;99.90
29241;DHT22;16268;49.880;8.648;2022-12-10T10:56:13;4.60;99.90
29241;DHT22;16268;49.880;8.648;2022-12-10T10:58:55;4.60;99.90
29241;DHT22;16268;49.880;8.648;2022-12-10T11:01:25;4.50;99.90
29241;DHT22;16268;49.880;8.648;2022-12-10T11:03:57;4.50;99.90
29241;DHT22;16268;49.880;8.648;2022-12-10T11:06:23;4.60;99.90
29241;DHT22;16268;49.880;8.648;2022-12-10T11:08:50;4.60;99.90
29241;DHT22;16268;49.880;8.648;2022-12-10T11:11:23;4.40;99.90
29241;DHT22;16268;49.880;8.648;2022-12-10T11:13:51;4.40;99.90
29241;DHT22;16268;49.880;8.648;2022-12-10T11:16:24;4.60;99.90
29241;DHT22;16268;49.880;8.648;2022-12-10T11:18:59;4.60;99.90
29241;DHT22;16268;49.880;8.648;2022-12-10T11:21:33;4.60;99.90
29241;DHT22;16268;49.880;8.648;2022-12-10T11:23:59;4.50;99.90
29241;DHT22;16268;49.880;8.648;2022-12-10T11:26:38;4.50;99.90
29241;DHT22;16268;49.880;8.648;2022-12-10T11:32:07;4.30;99.90
29241;DHT22;16268;49.880;8.648;2022-12-10T11:46:06;4.30;99.90
29241;DHT22;16268;49.880;8.648;2022-12-10T11:48:53;4.20;99.90
29241;DHT22;16268;49.880;8.648;2022-12-10T11:51:44;4.00;99.90
29241;DHT22;16268;49.880;8.648;2022-12-10T12:02:49;4.50;99.90
29241;DHT22;16268;49.880;8.648;2022-12-10T12:10:57;4.70;99.90
29241;DHT22;16268;49.880;8.648;2022-12-10T12:13:31;4.70;99.90
29241;DHT22;16268;49.880;8.648;2022-12-10T12:16:15;4.70;99.90
29241;DHT22;16268;49.880;8.648;2022-12-10T12:18:51;4.70;99.90
29241;DHT22;16268;49.880;8.648;2022-12-10T12:21:17;4.60;99.90
29241;DHT22;16268;49.880;8.648;2022-12-10T12:31:47;4.30;99.90
29241;DHT22;16268;49.880;8.648;2022-12-10T12:34:54;4.20;99.90
29241;DHT22;16268;49.880;8.648;2022-12-10T12:37:14;4.10;99.90
29241;DHT22;16268;49.880;8.648;2022-12-10T12:39:50;4.10;99.90
29241;DHT22;16268;49.880;8.648;2022-12-10T12:42:46;4.10;99.90
29241;DHT22;16268;49.880;8.648;2022-12-10T12:45:32;4.10;99.90
29241;DHT22;16268;49.880;8.648;2022-12-10T12:50:47;4.20;99.90
29241;DHT22;16268;49.880;8.648;2022-12-10T12:53:16;4.20;99.90
29241;DHT22;16268;49.880;8.648;2022-12-10T12:55:56;4.20;99.90
29241;DHT22;16268;49.880;8.648;2022-12-10T12:59:11;4.20;99.90
29241;DHT22;16268;49.880;8.648;2022-12-10T13:04:18;4.10;99.90
29241;DHT22;16268;49.880;8.648;2022-12-10T13:12:26;3.90;99.90
29241;DHT22;16268;49.880;8.648;2022-12-10T13:17:26;4.20;99.90
29241;DHT22;16268;49.880;8.648;2022-12-10T13:19:53;4.30;99.90
29241;DHT22;16268;49.880;8.648;2022-12-10T13:22:42;4.30;99.90
29241;DHT22;16268;49.880;8.648;2022-12-10T13:25:16;4.20;99.90
29241;DHT22;16268;49.880;8.648;2022-12-10T13:27:54;4.20;99.90
29241;DHT22;16268;49.880;8.648;2022-12-10T13:30:35;4.20;99.90
29241;DHT22;16268;49.880;8.648;2022-12-10T13:33:19;4.20;99.90
29241;DHT22;16268;49.880;8.648;2022-12-10T13:35:55;4.20;99.90
29241;DHT22;16268;49.880;8.648;2022-12-10T13:38:24;4.20;99.90
29241;DHT22;16268;49.880;8.648;2022-12-10T13:41:02;4.20;99.90
29241;DHT22;16268;49.880;8.648;2022-12-10T13:43:57;4.10;99.90
29241;DHT22;16268;49.880;8.648;2022-12-10T13:47:21;4.00;99.90
29241;DHT22;16268;49.880;8.648;2022-12-10T13:49:55;4.00;99.90
29241;DHT22;16268;49.880;8.648;2022-12-10T14:00:38;4.10;99.90
29241;DHT22;16268;49.880;8.648;2022-12-10T14:08:36;4.10;99.90
29241;DHT22;16268;49.880;8.648;2022-12-10T14:11:10;4.10;99.90
29241;DHT22;16268;49.880;8.648;2022-12-10T14:13:47;4.10;99.90
29241;DHT22;16268;49.880;8.648;2022-12-10T14:16:19;4.10;99.90
29241;DHT22;16268;49.880;8.648;2022-12-10T14:18:53;4.10;99.90
29241;DHT22;16268;49.880;8.648;2022-12-10T14:21:20;4.10;99.90
29241;DHT22;16268;49.880;8.648;2022-12-10T14:23:48;4.00;99.90
29241;DHT22;16268;49.880;8.648;2022-12-10T14:26:17;4.00;99.90
29241;DHT22;16268;49.880;8.648;2022-12-10T14:28:49;3.90;99.90
29241;DHT22;16268;49.880;8.648;2022-12-10T14:31:21;3.90;99.90
29241;DHT22;16268;49.880;8.648;2022-12-10T14:33:50;4.00;99.90
29241;DHT22;16268;49.880;8.648;2022-12-10T14:36:45;3.90;99.90
29241;DHT22;16268;49.880;8.648;2022-12-10T14:39:15;4.00;99.90
29241;DHT22;16268;49.880;8.648;2022-12-10T14:41:45;4.00;99.90
29241;DHT22;16268;49.880;8.648;2022-12-10T14:44:14;4.00;99.90
29241;DHT22;16268;49.880;8.648;2022-12-10T14:46:40;4.00;99.90
29241;DHT22;16268;49.880;8.648;2022-12-10T14:49:11;4.10;99.90
29241;DHT22;16268;49.880;8.648;2022-12-10T14:51:38;4.10;99.90
29241;DHT22;16268;49.880;8.648;2022-12-10T14:54:43;4.10;99.90
29241;DHT22;16268;49.880;8.648;2022-12-10T14:57:13;4.10;99.90
29241;DHT22;16268;49.880;8.648;2022-12-10T15:00:04;4.00;99.90
29241;DHT22;16268;49.880;8.648;2022-12-10T15:02:34;4.00;99.90
29241;DHT22;16268;49.880;8.648;2022-12-10T15:05:00;4.10;99.90
29241;DHT22;16268;49.880;8.648;2022-12-10T15:07:31;4.10;99.90
29241;DHT22;16268;49.880;8.648;2022-12-10T15:10:01;4.10;99.90
29241;DHT22;16268;49.880;8.648;2022-12-10T15:12:43;4.00;99.90
29241;DHT22;16268;49.880;8.648;2022-12-10T15:15:25;3.90;99.90
29241;DHT22;16268;49.880;8.648;2022-12-10T15:18:29;3.80;99.90
29241;DHT22;16268;49.880;8.648;2022-12-10T15:20:50;3.80;99.90
29241;DHT22;16268;49.880;8.648;2022-12-10T15:23:32;3.80;99.90
29241;DHT22;16268;49.880;8.648;2022-12-10T15:26:15;3.80;99.90
29241;DHT22;16268;49.880;8.648;2022-12-10T15:28:42;3.70;99.90
29241;DHT22;16268;49.880;8.648;2022-12-10T15:34:00;3.50;99.90
29241;DHT22;16268;49.880;8.648;2022-12-10T15:36:36;3.40;99.90
29241;DHT22;16268;49.880;8.648;2022-12-10T15:41:57;3.40;99.90
29241;DHT22;16268;49.880;8.648;2022-12-10T15:49:58;3.40;99.90
29241;DHT22;16268;49.880;8.648;2022-12-10T15:52:28;3.30;99.90
29241;DHT22;16268;49.880;8.648;2022-12-10T15:54:56;3.30;99.90
29241;DHT22;16268;49.880;8.648;2022-12-10T15:57:30;3.10;99.90
29241;DHT22;16268;49.880;8.648;2022-12-10T16:00:03;3.00;99.90
29241;DHT22;16268;49.880;8.648;2022-12-10T16:02:40;2.90;99.90
29241;DHT22;16268;49.880;8.648;2022-12-10T16:07:40;2.80;99.90
29241;DHT22;16268;49.880;8.648;2022-12-10T16:10:07;2.80;99.90
29241;DHT22;16268;49.880;8.648;2022-12-10T16:12:35;2.80;99.90
29241;DHT22;16268;49.880;8.648;2022-12-10T16:15:02;2.80;99.90
29241;DHT22;16268;49.880;8.648;2022-12-10T16:17:29;2.90;99.90
29241;DHT22;16268;49.880;8.648;2022-12-10T16:20:17;2.90;99.90
29241;DHT22;16268;49.880;8.648;2022-12-10T16:22:43;2.90;99.90
29241;DHT22;16268;49.880;8.648;2022-12-10T16:25:09;2.90;99.90
29241;DHT22;16268;49.880;8.648;2022-12-10T16:27:35;2.90;99.90
29241;DHT22;16268;49.880;8.648;2022-12-10T16:30:10;2.80;99.90
29241;DHT22;16268;49.880;8.648;2022-12-10T16:32:36;2.70;99.90
29241;DHT22;16268;49.880;8.648;2022-12-10T16:35:02;2.70;99.90
29241;DHT22;16268;49.880;8.648;2022-12-10T16:37:28;2.60;99.90
29241;DHT22;16268;49.880;8.648;2022-12-10T16:39:53;2.50;99.90
29241;DHT22;16268;49.880;8.648;2022-12-10T16:42:19;2.50;99.90
29241;DHT22;16268;49.880;8.648;2022-12-10T16:44:44;2.50;99.90
29241;DHT22;16268;49.880;8.648;2022-12-10T16:47:11;2.50;99.90
29241;DHT22;16268;49.880;8.648;2022-12-10T16:49:37;2.60;99.90
29241;DHT22;16268;49.880;8.648;2022-12-10T16:52:03;2.60;99.90
29241;DHT22;16268;49.880;8.648;2022-12-10T16:54:29;2.50;99.90
29241;DHT22;16268;49.880;8.648;2022-12-10T16:56:55;2.60;99.90
29241;DHT22;16268;49.880;8.648;2022-12-10T16:59:21;2.50;99.90
29241;DHT22;16268;49.880;8.648;2022-12-10T17:01:46;2.60;99.90
29241;DHT22;16268;49.880;8.648;2022-12-10T17:04:12;2.70;99.90
29241;DHT22;16268;49.880;8.648;2022-12-10T17:06:37;2.70;99.90
29241;DHT22;16268;49.880;8.648;2022-12-10T17:09:04;2.70;99.90
29241;DHT22;16268;49.880;8.648;2022-12-10T17:11:40;2.80;99.90
29241;DHT22;16268;49.880;8.648;2022-12-10T17:14:30;2.70;99.90
29241;DHT22;16268;49.880;8.648;2022-12-10T17:16:57;2.80;99.90
29241;DHT22;16268;49.880;8.648;2022-12-10T17:19:26;2.80;99.90
29241;DHT22;16268;49.880;8.648;2022-12-10T17:21:53;2.90;99.90
29241;DHT22;16268;49.880;8.648;2022-12-10T17:24:18;2.90;99.90
29241;DHT22;16268;49.880;8.648;2022-12-10T17:26:45;2.90;99.90
29241;DHT22;16268;49.880;8.648;2022-12-10T17:31:37;3.00;99.90
29241;DHT22;16268;49.880;8.648;2022-12-10T17:34:05;2.90;99.90
29241;DHT22;16268;49.880;8.648;2022-12-10T17:36:31;2.70;99.90
29241;DHT22;16268;49.880;8.648;2022-12-10T17:38:57;2.70;99.90
29241;DHT22;16268;49.880;8.648;2022-12-10T17:41:23;2.70;99.90